Time;durP1;ratioP1;P1;durP2;ratioP2;P2;SDS_P1;SDS_P2;PMS_P1;PMS_P2;Temp;Humidity;BMP_temperature;BMP_pressure;BME280_temperature;BME280_humidity;BME280_pressure;Samples;Min_cycle;Max_cycle;Signal;HPM_P1;HPM_P2
2022/03/23 00:02:18;;;;;;;47.72;30.55;;;;;;;;;;5138322;27;20047;-88
2022/03/23 00:04:45;;;;;;;46.83;31.55;;;;;;;;;;5138494;27;20100;-90
2022/03/23 00:07:11;;;;;;;51.35;31.63;;;;;;;;;;5120975;27;20129;-87
2022/03/23 00:09:37;;;;;;;44.15;29.75;;;;;;;;;;5138061;27;20078;-89
2022/03/23 00:12:03;;;;;;;48.70;31.05;;;;;;;;;;5120996;27;20402;-92
2022/03/23 00:14:29;;;;;;;49.63;30.67;;;;;;;;;;5122509;27;20045;-93
2022/03/23 00:16:55;;;;;;;42.47;27.02;;;;;;;;;;5121498;27;20046;-91
2022/03/23 00:19:21;;;;;;;44.60;29.02;;;;;;;;;;5121655;27;20520;-91
2022/03/23 00:21:47;;;;;;;45.88;29.58;;;;;;;;;;5137729;27;20495;-88
2022/03/23 00:24:13;;;;;;;53.53;29.33;;;;;;;;;;5120754;27;20049;-88
2022/03/23 00:26:39;;;;;;;51.10;30.17;;;;;;;;;;5138862;27;20046;-90
2022/03/23 00:29:06;;;;;;;47.30;28.55;;;;;;;;;;5137602;27;20035;-87
2022/03/23 00:31:32;;;;;;;39.65;26.63;;;;;;;;;;5120575;27;20038;-90
2022/03/23 00:33:58;;;;;;;42.03;28.02;;;;;;;;;;5137670;27;20035;-88
2022/03/23 00:36:24;;;;;;;45.08;28.42;;;;;;;;;;5120252;27;20050;-87
2022/03/23 00:38:53;;;;;;;44.40;30.45;;;;;;;;;;5120432;27;20130;-89
2022/03/23 00:41:19;;;;;;;51.00;32.10;;;;;;;;;;5137008;27;20089;-89
2022/03/23 00:43:45;;;;;;;47.00;30.00;;;;;;;;;;5136791;27;20039;-89
2022/03/23 00:46:11;;;;;;;49.70;30.08;;;;;;;;;;5120189;27;20042;-89
2022/03/23 00:48:38;;;;;;;52.97;31.25;;;;;;;;;;5119945;27;20083;-88
2022/03/23 00:51:04;;;;;;;49.30;31.92;;;;;;;;;;5137324;27;20050;-89
2022/03/23 00:53:30;;;;;;;63.22;34.40;;;;;;;;;;5120159;27;20038;-87
2022/03/23 00:55:56;;;;;;;57.42;37.17;;;;;;;;;;5119936;27;20046;-89
2022/03/23 00:58:22;;;;;;;57.65;33.20;;;;;;;;;;5120948;27;20099;-89
2022/03/23 01:00:48;;;;;;;53.47;34.25;;;;;;;;;;5136962;27;20046;-88
2022/03/23 01:03:14;;;;;;;50.60;31.13;;;;;;;;;;5137570;27;20061;-89
2022/03/23 01:05:41;;;;;;;48.95;31.77;;;;;;;;;;5119823;27;20039;-88
2022/03/23 01:08:07;;;;;;;49.42;29.35;;;;;;;;;;5120079;27;20403;-89
2022/03/23 01:10:34;;;;;;;55.83;32.10;;;;;;;;;;5120239;27;20047;-89
2022/03/23 01:13:00;;;;;;;52.80;32.33;;;;;;;;;;5120008;27;20095;-88
2022/03/23 01:15:26;;;;;;;55.22;30.95;;;;;;;;;;5137170;27;20407;-89
2022/03/23 01:17:53;;;;;;;46.38;30.70;;;;;;;;;;5120458;27;20121;-89
2022/03/23 01:20:19;;;;;;;61.80;32.67;;;;;;;;;;5119841;27;20097;-88
2022/03/23 01:22:45;;;;;;;48.33;28.55;;;;;;;;;;5141827;27;20094;-88
2022/03/23 01:25:13;;;;;;;46.47;28.55;;;;;;;;;;5123742;27;20038;-88
2022/03/23 01:27:40;;;;;;;49.30;31.50;;;;;;;;;;5141152;27;20518;-87
2022/03/23 01:30:08;;;;;;;48.15;30.67;;;;;;;;;;5140994;27;20042;-88
2022/03/23 01:32:34;;;;;;;52.03;32.00;;;;;;;;;;5124381;27;20100;-89
2022/03/23 01:35:00;;;;;;;51.60;31.90;;;;;;;;;;5123791;27;20521;-89
2022/03/23 01:37:26;;;;;;;47.65;30.00;;;;;;;;;;5124125;27;20133;-93
2022/03/23 01:39:52;;;;;;;49.22;29.95;;;;;;;;;;5141755;27;20126;-93
2022/03/23 01:42:19;;;;;;;47.55;29.75;;;;;;;;;;5123423;27;20035;-90
2022/03/23 01:44:45;;;;;;;56.88;33.55;;;;;;;;;;5141523;27;20046;-89
2022/03/23 01:47:13;;;;;;;54.70;31.48;;;;;;;;;;5141242;27;20482;-90
2022/03/23 01:49:43;;;;;;;47.90;30.65;;;;;;;;;;5141483;27;20129;-91
2022/03/23 01:52:10;;;;;;;50.60;30.08;;;;;;;;;;5141776;27;20064;-88
2022/03/23 01:54:37;;;;;;;52.95;30.17;;;;;;;;;;5123277;27;20039;-91
2022/03/23 01:57:04;;;;;;;47.65;30.73;;;;;;;;;;5123737;27;20042;-86
2022/03/23 01:59:30;;;;;;;45.08;29.85;;;;;;;;;;5123823;27;20085;-84
2022/03/23 02:01:56;;;;;;;41.60;26.95;;;;;;;;;;5123648;27;20179;-87
2022/03/23 02:04:23;;;;;;;44.28;28.23;;;;;;;;;;5141004;27;20058;-91
2022/03/23 02:06:49;;;;;;;45.95;28.92;;;;;;;;;;5140503;27;20027;-89
2022/03/23 02:09:16;;;;;;;45.47;27.83;;;;;;;;;;5140369;27;20487;-87
2022/03/23 02:11:42;;;;;;;41.30;26.50;;;;;;;;;;5123509;27;20030;-89
2022/03/23 02:14:11;;;;;;;46.30;27.33;;;;;;;;;;5123067;27;20576;-89
2022/03/23 02:16:45;;;;;;;44.78;28.38;;;;;;;;;;5140409;27;20383;-87
2022/03/23 02:19:11;;;;;;;48.05;29.40;;;;;;;;;;5123116;27;20046;-90
2022/03/23 02:21:37;;;;;;;46.67;28.20;;;;;;;;;;5140212;27;20099;-90
2022/03/23 02:24:04;;;;;;;47.17;28.30;;;;;;;;;;5123339;27;20038;-83
2022/03/23 02:26:31;;;;;;;52.75;32.70;;;;;;;;;;5140038;27;20043;-91
2022/03/23 02:28:58;;;;;;;49.95;30.13;;;;;;;;;;5140417;27;20391;-93
2022/03/23 02:31:24;;;;;;;56.00;32.60;;;;;;;;;;5140449;27;20561;-87
2022/03/23 02:33:50;;;;;;;57.65;31.52;;;;;;;;;;5139736;27;20034;-89
2022/03/23 02:36:16;;;;;;;52.33;32.42;;;;;;;;;;5122779;27;20051;-92
2022/03/23 02:38:42;;;;;;;61.42;34.60;;;;;;;;;;5140234;27;20050;-93
2022/03/23 02:41:09;;;;;;;48.95;31.48;;;;;;;;;;5123658;27;20125;-92
2022/03/23 02:43:35;;;;;;;47.72;31.30;;;;;;;;;;5123735;27;20521;-92
2022/03/23 02:46:02;;;;;;;54.22;31.67;;;;;;;;;;5124469;27;20087;-93
2022/03/23 02:48:28;;;;;;;48.42;30.40;;;;;;;;;;5141195;27;20047;-92
2022/03/23 02:50:54;;;;;;;49.90;29.95;;;;;;;;;;5124087;27;20042;-92
2022/03/23 03:02:19;;;;;;;52.70;30.52;;;5.40;99.90;;;;;;5139574;27;20047;-85
2022/03/23 03:04:45;;;;;;;43.05;26.67;;;;;;;;;;5123278;27;20054;-87
2022/03/23 03:07:11;;;;;;;47.35;28.17;;;;;;;;;;5141023;27;20383;-88
2022/03/23 03:09:37;;;;;;;39.97;25.98;;;;;;;;;;5122034;27;20043;-88
2022/03/23 03:12:04;;;;;;;36.88;25.40;;;;;;;;;;5122569;27;20084;-88
2022/03/23 03:14:31;;;;;;;40.65;24.40;;;;;;;;;;5122698;27;20483;-87
2022/03/23 03:16:57;;;;;;;38.67;25.30;;;;;;;;;;5139480;27;20051;-88
2022/03/23 03:19:24;;;;;;;34.55;22.42;;;;;;;;;;5138945;27;20049;-88
2022/03/23 03:21:50;;;;;;;36.40;24.05;;;;;;;;;;5139755;27;20042;-87
2022/03/23 03:24:16;;;;;;;38.60;23.15;;;;;;;;;;5122946;27;20039;-88
2022/03/23 03:26:44;;;;;;;36.20;21.88;;;;;;;;;;5139386;27;20512;-88
2022/03/23 03:29:10;;;;;;;41.35;21.13;;;;;;;;;;5138901;27;20039;-88
2022/03/23 03:31:36;;;;;;;29.15;18.05;;;;;;;;;;5121475;27;20446;-87
2022/03/23 03:34:02;;;;;;;29.48;19.42;;;;;;;;;;5139382;27;20030;-87
2022/03/23 03:36:28;;;;;;;24.20;18.42;;;;;;;;;;5118435;27;20047;-87
2022/03/23 03:38:54;;;;;;;30.70;19.15;;;;;;;;;;5119207;27;20451;-88
2022/03/23 03:41:21;;;;;;;30.92;20.17;;;;;;;;;;5135573;27;20083;-87
2022/03/23 03:43:48;;;;;;;31.83;20.85;;;;;;;;;;5134244;27;20057;-88
2022/03/23 03:46:14;;;;;;;32.83;21.25;;;;;;;;;;5118381;27;20082;-88
2022/03/23 03:48:40;;;;;;;30.85;21.60;;;;;;;;;;5135068;27;20107;-88
2022/03/23 03:51:08;;;;;;;34.13;22.88;;;;;;;;;;5118029;27;20158;-87
2022/03/23 03:53:35;;;;;;;35.50;20.67;;;;;;;;;;5135044;27;20126;-87
2022/03/23 03:56:01;;;;;;;35.80;23.95;;;;;;;;;;5117727;27;20039;-87
2022/03/23 03:58:27;;;;;;;40.25;24.60;;;;;;;;;;5118264;27;20043;-93
2022/03/23 04:00:54;;;;;;;41.38;24.85;;;;;;;;;;5135464;27;20081;-89
2022/03/23 04:03:20;;;;;;;31.38;21.27;;;;;;;;;;5118519;27;20067;-86
2022/03/23 04:05:46;;;;;;;34.55;21.98;;;;;;;;;;5118928;27;20492;-95
2022/03/23 04:08:12;;;;;;;33.70;22.02;;;;;;;;;;5118019;27;20515;-93
2022/03/23 04:10:39;;;;;;;29.50;20.70;;;;;;;;;;5135489;27;20043;-91
2022/03/23 04:13:07;;;;;;;33.95;22.38;;;;;;;;;;5117876;27;20047;-93
2022/03/23 04:15:34;;;;;;;31.20;20.55;;;;;;;;;;5135471;27;20050;-91
2022/03/23 04:18:00;;;;;;;30.73;20.42;;;;;;;;;;5118530;27;20042;-87
2022/03/23 04:20:26;;;;;;;32.63;22.33;;;;;;;;;;5135909;27;20039;-93
2022/03/23 04:22:52;;;;;;;36.75;22.80;;;;;;;;;;5118707;27;20043;-90
2022/03/23 04:25:18;;;;;;;40.65;24.95;;;;;;;;;;5118152;27;20046;-86
2022/03/23 04:27:49;;;;;;;36.05;23.60;;;;;;;;;;5117441;28;20047;-92
2022/03/23 04:30:17;;;;;;;40.05;25.50;;;;;;;;;;5134153;27;20404;-88
2022/03/23 04:32:45;;;;;;;39.75;24.48;;;;;;;;;;5136313;27;20122;-89
2022/03/23 04:35:11;;;;;;;38.72;25.40;;;;;;;;;;5136290;27;20054;-91
2022/03/23 04:37:37;;;;;;;35.25;23.38;;;;;;;;;;5134823;28;20047;-86
2022/03/23 04:40:04;;;;;;;35.67;23.20;;;;;;;;;;5134625;28;20385;-86
2022/03/23 04:42:30;;;;;;;35.28;22.65;;;;;;;;;;5117712;28;20040;-85
2022/03/23 04:44:56;;;;;;;35.15;22.77;;;;;;;;;;5117386;28;20044;-91
2022/03/23 04:47:22;;;;;;;33.70;22.15;;;;;;;;;;5117800;28;20130;-94
2022/03/23 04:49:48;;;;;;;37.03;22.77;;;;;;;;;;5116251;28;20047;-88
2022/03/23 04:52:16;;;;;;;41.20;25.02;;;;;;;;;;5116416;28;20051;-88
2022/03/23 04:54:43;;;;;;;42.08;26.23;;;;;;;;;;5134049;27;20384;-87
2022/03/23 04:57:09;;;;;;;41.97;24.67;;;;;;;;;;5137297;27;20078;-89
2022/03/23 04:59:35;;;;;;;38.50;25.02;;;;;;;;;;5121232;27;20043;-88
2022/03/23 05:02:01;;;;;;;38.22;25.05;;;;;;;;;;5138269;27;20035;-89
2022/03/23 05:04:27;;;;;;;42.30;26.15;;;;;;;;;;5120932;27;20035;-88
2022/03/23 05:06:53;;;;;;;45.90;25.52;;;;;;;;;;5137204;27;20381;-87
2022/03/23 05:09:19;;;;;;;34.85;23.02;;;;;;;;;;5120730;27;20043;-88
2022/03/23 05:11:45;;;;;;;34.80;21.90;;;;;;;;;;5120033;27;20412;-89
2022/03/23 05:14:11;;;;;;;34.97;22.45;;;;;;;;;;5119960;27;20492;-87
2022/03/23 05:16:37;;;;;;;33.30;23.10;;;;;;;;;;5120986;27;20054;-87
2022/03/23 05:19:03;;;;;;;43.75;26.15;;;;;;;;;;5137365;27;20069;-88
2022/03/23 05:21:30;;;;;;;40.13;25.83;;;;;;;;;;5120664;27;20487;-88
2022/03/23 05:23:56;;;;;;;51.95;29.55;;;;;;;;;;5121452;27;20380;-89
2022/03/23 05:26:22;;;;;;;49.72;27.00;;;;;;;;;;5120852;27;20047;-87
2022/03/23 05:28:48;;;;;;;41.53;26.73;;;;;;;;;;5137965;27;20483;-87
2022/03/23 05:31:14;;;;;;;40.90;26.48;;;;;;;;;;5137572;27;20543;-88
2022/03/23 05:33:40;;;;;;;47.97;28.60;;;;;;;;;;5120327;27;20088;-88
2022/03/23 05:36:06;;;;;;;73.85;38.30;;;;;;;;;;5119874;27;20059;-88
2022/03/23 05:38:32;;;;;;;111.05;51.63;;;;;;;;;;5120627;27;20050;-89
2022/03/23 05:40:58;;;;;;;113.47;47.88;;;;;;;;;;5120597;27;20043;-88
2022/03/23 05:43:24;;;;;;;86.28;40.55;;;;;;;;;;5119930;27;20130;-88
2022/03/23 05:45:50;;;;;;;62.97;33.65;;;;;;;;;;5120070;27;20039;-86
2022/03/23 05:48:16;;;;;;;55.10;31.35;;;;;;;;;;5121126;27;20053;-88
2022/03/23 05:50:42;;;;;;;46.88;27.98;;;;;;;;;;5119829;27;20489;-86
2022/03/23 05:53:09;;;;;;;42.42;27.33;;;;;;;;;;5119575;27;20035;-87
2022/03/23 05:55:35;;;;;;;57.38;35.70;;;;;;;;;;5136515;27;20492;-86
2022/03/23 05:58:03;;;;;;;75.72;44.45;;;;;;;;;;5136937;27;20035;-88
2022/03/23 06:00:30;;;;;;;54.70;33.67;;;;;;;;;;5120152;27;20043;-89
2022/03/23 06:02:56;;;;;;;50.78;33.47;;;;;;;;;;5137788;27;20539;-86
2022/03/23 06:05:22;;;;;;;68.18;44.28;;;;;;;;;;5120487;27;20494;-89
2022/03/23 06:07:49;;;;;;;86.07;51.58;;;;;;;;;;5121268;27;20047;-93
2022/03/23 06:10:15;;;;;;;115.35;64.82;;;;;;;;;;5126520;27;20058;-92
2022/03/23 06:12:41;;;;;;;55.55;36.72;;;;;;;;;;5140341;27;20035;-93
2022/03/23 06:15:10;;;;;;;47.10;31.20;;;;;;;;;;5121580;27;20039;-94
2022/03/23 06:17:36;;;;;;;61.78;37.72;;;;;;;;;;5138801;27;20047;-94
2022/03/23 06:20:03;;;;;;;55.05;34.38;;;;;;;;;;5121756;27;20043;-91
2022/03/23 06:22:31;;;;;;;32.22;24.70;;;;;;;;;;5121218;27;20035;-93
2022/03/23 06:24:57;;;;;;;30.65;23.23;;;;;;;;;;5122465;27;20453;-94
2022/03/23 06:27:24;;;;;;;27.55;20.77;;;;;;;;;;5139872;27;20046;-90
2022/03/23 06:29:50;;;;;;;34.58;23.52;;;;;;;;;;5122359;27;20051;-92
2022/03/23 06:32:17;;;;;;;31.10;21.50;;;;;;;;;;5121514;27;20047;-93
2022/03/23 06:34:43;;;;;;;31.80;21.92;;;;;;;;;;5138490;27;20043;-93
2022/03/23 06:37:09;;;;;;;29.05;20.67;;;;;;;;;;5138408;27;20499;-90
2022/03/23 06:39:37;;;;;;;27.27;20.88;;;;;;;;;;5138043;27;20159;-89
2022/03/23 06:42:03;;;;;;;23.58;19.52;;;;;;;;;;5138310;27;20399;-92
2022/03/23 06:44:29;;;;;;;27.05;20.23;;;;;;;;;;5119341;27;20495;-88
2022/03/23 06:46:55;;;;;;;27.40;20.27;;;;;;;;;;5119453;27;20039;-87
2022/03/23 06:49:21;;;;;;;23.55;19.48;;;;;;;;;;5118845;27;20039;-85
2022/03/23 06:51:47;;;;;;;25.73;20.50;;;;;;;;;;5135966;27;20575;-88
2022/03/23 06:54:13;;;;;;;35.20;22.35;;;;;;;;;;5135361;27;20042;-88
2022/03/23 06:56:39;;;;;;;36.13;23.88;;;;;;;;;;5118438;27;20184;-89
2022/03/23 06:59:05;;;;;;;37.22;25.67;;;;;;;;;;5135123;27;20043;-86
2022/03/23 07:01:31;;;;;;;36.70;24.58;;;;;;;;;;5118594;27;20072;-89
2022/03/23 07:03:57;;;;;;;31.75;22.38;;;;;;;;;;5118422;27;20043;-84
2022/03/23 07:06:23;;;;;;;39.75;25.30;;;;;;;;;;5118412;27;20054;-86
2022/03/23 07:11:34;;;;;;;42.45;24.42;;;;;;;;;;5135318;27;20047;-84
2022/03/23 07:14:00;;;;;;;49.38;29.23;;;;;;;;;;5118155;27;20047;-87
2022/03/23 07:16:28;;;;;;;50.08;31.08;;;;;;;;;;5118288;27;20050;-88
2022/03/23 07:18:54;;;;;;;51.85;33.13;;;;;;;;;;5117432;27;20039;-85
2022/03/23 07:21:20;;;;;;;55.28;34.35;;;;;;;;;;5117853;27;20039;-87
2022/03/23 07:23:46;;;;;;;57.08;35.08;;;;;;;;;;5118114;27;20081;-88
2022/03/23 07:26:12;;;;;;;54.92;34.70;;;;;;;;;;5117577;27;20050;-88
2022/03/23 07:28:39;;;;;;;71.63;37.85;;;;;;;;;;5134813;27;20496;-87
2022/03/23 07:31:05;;;;;;;61.72;37.90;;;;;;;;;;5126489;27;20049;-89
2022/03/23 07:33:31;;;;;;;60.45;38.40;;;;;;;;;;5122721;27;20047;-86
2022/03/23 07:35:57;;;;;;;72.13;39.35;;;;;;;;;;5122319;27;20065;-96
2022/03/23 07:38:23;;;;;;;69.93;40.90;;;;;;;;;;5127483;27;20125;-94
2022/03/23 07:40:49;;;;;;;72.75;41.97;;;;;;;;;;5139860;27;20058;-93
2022/03/23 07:43:15;;;;;;;74.10;41.97;;;;;;;;;;5124868;27;20054;-86
2022/03/23 07:45:41;;;;;;;82.00;45.05;;;;;;;;;;5123681;27;20042;-94
2022/03/23 07:48:07;;;;;;;80.28;46.00;;;;;;;;;;5122892;27;20038;-85
2022/03/23 07:50:33;;;;;;;72.70;43.70;;;;;;;;;;5121833;27;20082;-89
2022/03/23 07:52:59;;;;;;;75.03;43.70;;;;;;;;;;5124399;27;20129;-88
2022/03/23 07:55:25;;;;;;;76.78;44.38;;;;;;;;;;5137663;27;20042;-88
2022/03/23 07:57:51;;;;;;;70.55;42.72;;;;;;;;;;5120562;27;20094;-88
2022/03/23 08:00:18;;;;;;;67.80;41.42;;;;;;;;;;5121188;27;20082;-89
2022/03/23 08:02:44;;;;;;;71.15;41.30;;;;;;;;;;5137347;27;20042;-88
2022/03/23 08:05:10;;;;;;;71.93;41.40;;;;;;;;;;5138253;27;20501;-89
2022/03/23 08:07:36;;;;;;;68.68;40.28;;;;;;;;;;5137747;27;20047;-90
2022/03/23 08:10:03;;;;;;;62.65;39.15;;;;;;;;;;5137844;27;20055;-89
2022/03/23 08:12:29;;;;;;;60.08;37.08;;;;;;;;;;5138578;27;20130;-89
2022/03/23 08:14:55;;;;;;;64.35;37.70;;;;;;;;;;5120841;27;20047;-89
2022/03/23 08:17:21;;;;;;;57.13;36.83;;;;;;;;;;5137353;27;20039;-88
2022/03/23 08:20:32;;;;;;;59.83;34.70;;;;;;;;;;5137926;27;20039;-91
2022/03/23 08:22:36;;;;;;;58.55;36.13;;;;;;;;;;5137607;27;20043;-85
2022/03/23 08:25:02;;;;;;;57.17;35.30;;;;;;;;;;5137577;27;20410;-87
2022/03/23 08:27:28;;;;;;;55.22;35.67;;;;;;;;;;5137223;27;20444;-84
2022/03/23 08:29:54;;;;;;;49.25;33.63;;;;;;;;;;5121015;27;20504;-88
2022/03/23 08:32:23;;;;;;;50.80;33.00;;;;;;;;;;5120746;27;20087;-90
2022/03/23 08:34:50;;;;;;;51.97;31.58;;;;;;;;;;5138184;27;20106;-89
2022/03/23 08:37:16;;;;;;;52.92;32.88;;;;;;;;;;5121090;27;20046;-84
2022/03/23 08:39:42;;;;;;;54.60;31.55;;;;;;;;;;5121042;27;20046;-91
2022/03/23 08:42:09;;;;;;;48.50;30.27;;;;;;;;;;5137855;27;20125;-91
2022/03/23 08:44:35;;;;;;;61.10;30.23;;;;;;;;;;5121221;27;20051;-87
2022/03/23 08:47:02;;;;;;;50.58;30.98;;;;;;;;;;5120586;27;20095;-90
2022/03/23 08:49:28;;;;;;;54.25;29.73;;;;;;;;;;5138768;27;20035;-90
2022/03/23 08:51:54;;;;;;;46.47;29.25;;;;;;;;;;5139266;27;20046;-93
2022/03/23 08:54:22;;;;;;;49.83;27.85;;;;;;;;;;5137742;27;20116;-88
2022/03/23 08:56:49;;;;;;;45.20;28.60;;;;;;;;;;5120848;27;20042;-90
2022/03/23 08:59:15;;;;;;;47.30;29.38;;;;;;;;;;5137931;27;20084;-92
2022/03/23 09:01:41;;;;;;;46.42;29.65;;;;;;;;;;5120947;27;20046;-88
2022/03/23 09:04:08;;;;;;;44.78;28.35;;;;;;;;;;5137716;27;20058;-89
2022/03/23 09:06:34;;;;;;;51.15;28.42;;;;;;;;;;5120471;27;20102;-90
2022/03/23 09:09:01;;;;;;;48.00;30.23;;;;;;;;;;5120214;27;20049;-89
2022/03/23 09:11:27;;;;;;;48.10;28.98;;;;;;;;;;5139521;27;20051;-92
2022/03/23 09:13:54;;;;;;;45.85;28.27;;;;;;;;;;5138187;27;20046;-90
2022/03/23 09:16:20;;;;;;;43.95;29.08;;;;;;;;;;5120568;27;20042;-89
2022/03/23 09:18:46;;;;;;;51.72;26.85;;;;;;;;;;5119972;27;20046;-90
2022/03/23 09:21:13;;;;;;;45.83;28.20;;;;;;;;;;5121059;27;20129;-92
2022/03/23 09:23:40;;;;;;;43.83;28.98;;;;;;;;;;5138522;27;20449;-86
2022/03/23 09:26:09;;;;;;;41.55;27.42;;;;;;;;;;5138241;27;20127;-89
2022/03/23 09:28:36;;;;;;;45.17;27.80;;;;;;;;;;5121959;27;20126;-93
2022/03/23 09:31:02;;;;;;;41.80;28.40;;;;;;;;;;5138273;27;20464;-92
2022/03/23 09:33:28;;;;;;;40.53;26.90;;;;;;;;;;5139711;27;20039;-82
2022/03/23 09:35:54;;;;;;;49.72;28.67;;;;;;;;;;5124337;27;20135;-89
2022/03/23 09:38:20;;;;;;;40.08;27.00;;;;;;;;;;5121352;27;20038;-93
2022/03/23 09:40:51;;;;;;;45.00;27.90;;;;;;;;;;5139825;27;20072;-90
2022/03/23 09:43:19;;;;;;;37.35;26.77;;;;;;;;;;5123911;27;20042;-92
2022/03/23 09:45:48;;;;;;;35.42;25.77;;;;;;;;;;5141914;27;20499;-91
2022/03/23 09:48:16;;;;;;;43.00;27.20;;;;;;;;;;5141381;27;20049;-93
2022/03/23 09:50:47;;;;;;;42.10;26.23;;;12.40;99.90;;;;;;5124676;27;20042;-91
2022/03/23 09:53:13;;;;;;;39.05;25.63;;;;;;;;;;5140878;27;20398;-85
2022/03/23 09:55:41;;;;;;;40.60;26.73;;;;;;;;;;5142131;27;20516;-93
2022/03/23 09:58:08;;;;;;;35.75;26.33;;;;;;;;;;5124011;27;20039;-85
2022/03/23 10:00:38;;;;;;;38.30;24.17;;;13.00;99.90;;;;;;5124420;27;20039;-84
2022/03/23 10:03:59;;;;;;;34.85;24.30;;;12.90;99.90;;;;;;5143497;27;20069;-82
2022/03/23 10:07:04;;;;;;;32.30;22.33;;;13.20;99.90;;;;;;5097509;28;20051;-88
2022/03/23 10:09:49;;;;;;;34.35;22.52;;;13.30;99.90;;;;;;5083378;28;20085;-90
2022/03/23 10:12:52;;;;;;;31.38;22.95;;;13.00;99.90;;;;;;5065326;28;20048;-91
2022/03/23 10:15:36;;;;;;;36.47;23.08;;;13.20;99.90;;;;;;5081117;28;20051;-91
2022/03/23 10:18:11;;;;;;;36.65;23.52;;;;;;;;;;5064935;28;20044;-83
2022/03/23 10:20:37;;;;;;;33.92;21.27;;;;;;;;;;5073552;28;20139;-85
2022/03/23 10:23:06;;;;;;;31.63;22.23;;;;;;;;;;5063883;28;20104;-88
2022/03/23 10:25:32;;;;;;;42.75;22.58;;;;;;;;;;5078636;28;20076;-90
2022/03/23 10:27:59;;;;;;;34.78;22.02;;;;;;;;;;5062899;28;20413;-90
2022/03/23 10:30:36;;;;;;;32.03;21.77;;;;;;;;;;5079630;28;20460;-91
2022/03/23 10:33:03;;;;;;;32.80;21.88;;;13.80;99.90;;;;;;5079670;28;20048;-88
2022/03/23 10:35:37;;;;;;;30.17;21.20;;;14.00;99.90;;;;;;5062048;28;20048;-86
2022/03/23 10:38:36;;;;;;;35.03;18.15;;;14.20;99.90;;;;;;5075645;28;20049;-90
2022/03/23 10:41:24;;;;;;;23.83;18.15;;;14.10;99.90;;;;;;5103109;27;20486;-87
2022/03/23 10:44:10;;;;;;;;;;;;;;;;;;;;;
2022/03/23 10:46:58;;;;;;;24.30;17.00;;;;;;;;;;5136694;27;20122;-91
2022/03/23 10:49:45;;;;;;;27.98;15.73;;;;;;;;;;5135968;27;20047;-92
2022/03/23 10:52:23;;;;;;;19.95;14.45;;;;;;;;;;5137059;27;20069;-91
2022/03/23 10:55:07;;;;;;;22.90;15.27;;;;;;;;;;5119594;27;20042;-91
2022/03/23 10:57:52;;;;;;;22.60;15.77;;;;;;;;;;5119248;27;20039;-88
2022/03/23 11:00:30;;;;;;;24.70;16.48;;;;;;;;;;5136597;27;20047;-91
2022/03/23 11:02:57;;;;;;;22.42;15.70;;;;;;;;;;5136364;27;20035;-89
2022/03/23 11:05:37;;;;;;;26.52;16.77;;;;;;;;;;5120042;27;20055;-90
2022/03/23 11:08:09;;;;;;;23.80;13.82;;;;;;;;;;5119065;27;20491;-88
2022/03/23 11:16:12;;;;;;;24.42;12.73;;;;;;;;;;5136374;27;20051;-89
2022/03/23 11:18:41;;;;;;;24.25;14.05;;;;;;;;;;5136666;27;20039;-90
2022/03/23 11:21:08;;;;;;;29.02;17.40;;;;;;;;;;5136518;27;20042;-90
2022/03/23 11:23:38;;;;;;;27.27;16.67;;;;;;;;;;5119586;27;20112;-87
2022/03/23 11:26:13;;;;;;;22.77;15.82;;;;;;;;;;5120172;27;20074;-92
2022/03/23 11:28:43;;;;;;;23.75;15.98;;;15.50;99.90;;;;;;5118994;27;20388;-85
2022/03/23 11:31:12;;;;;;;26.15;16.70;;;15.40;99.90;;;;;;5135533;27;20077;-91
2022/03/23 11:33:38;;;;;;;25.13;15.68;;;;;;;;;;5119553;27;20135;-89
2022/03/23 11:36:12;;;;;;;25.55;14.05;;;15.50;99.90;;;;;;5126435;27;20059;-86
2022/03/23 11:39:01;;;;;;;;;;;;;;;;;;;;;
2022/03/23 11:42:34;;;;;;;20.27;13.85;;;15.70;99.90;;;;;;5137377;27;20566;-90
2022/03/23 11:45:00;;;;;;;25.42;13.07;;;;;;;;;;5113770;27;20050;-88
2022/03/23 11:48:10;;;;;;;28.88;13.95;;;15.70;99.90;;;;;;5117751;27;20039;-94
2022/03/23 11:51:19;;;;;;;28.17;13.02;;;16.00;99.90;;;;;;5120359;27;20502;-90
2022/03/23 11:53:54;;;;;;;22.08;12.35;;;;;;;;;;5121955;27;20039;-89
2022/03/23 11:56:32;;;;;;;23.25;13.40;;;;;;;;;;5138407;27;20439;-89
2022/03/23 11:59:22;;;;;;;22.42;11.35;;;;;;;;;;5122290;27;20130;-89
2022/03/23 12:01:50;;;;;;;24.55;11.82;;;;;;;;;;5139075;27;20050;-88
2022/03/23 12:05:08;;;;;;;;;;;;;;;;;;;;;
2022/03/23 12:11:41;;;;;;;22.30;13.55;;;;;;;;;;5137784;27;20057;-90
2022/03/23 12:14:47;;;;;;;21.88;12.90;;;16.50;99.90;;;;;;5138096;27;20041;-90
2022/03/23 12:17:55;;;;;;;27.65;14.48;;;16.50;99.90;;;;;;5121019;27;20505;-90
2022/03/23 12:21:19;;;;;;;;;;;;;;;;;;;;;
2022/03/23 12:27:38;;;;;;;21.75;13.98;;;;;;;;;;4877947;29;20060;-90
2022/03/23 12:30:21;;;;;;;27.25;14.10;;;;;;;;;;4862265;29;20108;-90
2022/03/23 12:33:28;;;;;;;23.70;13.87;;;16.80;99.90;;;;;;4862969;29;20146;-88
2022/03/23 12:36:18;;;;;;;28.42;13.88;;;;;;;;;;4862405;29;20052;-88
2022/03/23 12:38:58;;;;;;;31.08;15.25;;;;;;;;;;4877752;29;20693;-90
2022/03/23 12:41:46;;;;;;;21.67;12.38;;;17.10;99.90;;;;;;4861382;29;20409;-89
2022/03/23 12:44:12;;;;;;;22.85;11.13;;;;;;;;;;4863296;29;20057;-86
2022/03/23 12:46:44;;;;;;;24.15;14.18;;;17.10;99.90;;;;;;4862896;29;20452;-88
2022/03/23 12:58:04;;;;;;;25.90;14.50;;;17.30;99.90;;;;;;5017121;28;20048;-82
2022/03/23 13:00:33;;;;;;;26.83;14.50;;;17.30;99.90;;;;;;5072324;28;20455;-84
2022/03/23 13:03:04;;;;;;;17.52;12.75;;;17.30;99.90;;;;;;5068786;27;20078;-88
2022/03/23 13:05:32;;;;;;;20.08;11.18;;;17.30;99.90;;;;;;5137293;27;20046;-82
2022/03/23 13:07:57;;;;;;;17.98;9.90;;;17.20;99.90;;;;;;5137815;27;20080;-83
2022/03/23 13:10:27;;;;;;;18.88;11.43;;;;;;;;;;5137059;27;20065;-85
2022/03/23 13:13:05;;;;;;;19.27;11.85;;;17.40;99.90;;;;;;5120114;27;20042;-88
2022/03/23 13:15:31;;;;;;;21.73;12.05;;;;;;;;;;5120351;27;20047;-85
2022/03/23 13:17:58;;;;;;;23.10;10.57;;;17.60;99.90;;;;;;5139321;27;20081;-92
2022/03/23 13:20:27;;;;;;;22.40;9.27;;;17.60;99.90;;;;;;5140338;27;20415;-83
2022/03/23 13:22:53;;;;;;;17.77;11.02;;;;;;;;;;5123951;27;20046;-83
2022/03/23 13:25:19;;;;;;;23.58;10.95;;;;;;;;;;5141212;27;20067;-83
2022/03/23 13:27:48;;;;;;;19.65;11.93;;;17.70;99.90;;;;;;5141448;27;20046;-81
2022/03/23 13:30:16;;;;;;;18.77;11.20;;;17.80;99.90;;;;;;5126473;27;20050;-80
2022/03/23 13:32:50;;;;;;;22.30;12.43;;;17.60;99.90;;;;;;5125602;27;20039;-82
2022/03/23 13:35:20;;;;;;;19.95;13.00;;;18.00;99.90;;;;;;5127592;27;20053;-86
2022/03/23 13:38:05;;;;;;;19.23;12.32;;;17.80;99.90;;;;;;5125713;27;20050;-82
2022/03/23 13:43:24;;;;;;;19.33;10.48;;;17.80;99.90;;;;;;5142052;27;20134;-81
2022/03/23 13:45:56;;;;;;;20.40;10.80;;;17.90;99.90;;;;;;5125383;27;20495;-81
2022/03/23 13:48:23;;;;;;;20.75;10.77;;;17.80;99.90;;;;;;5143439;27;20064;-81
2022/03/23 13:50:51;;;;;;;21.10;11.23;;;17.90;99.90;;;;;;5142610;27;20031;-81
2022/03/23 13:53:18;;;;;;;19.38;10.85;;;18.00;99.90;;;;;;5142919;27;20095;-89
2022/03/23 13:55:47;;;;;;;26.90;10.32;;;18.10;99.90;;;;;;5126091;27;20125;-84
2022/03/23 13:58:16;;;;;;;20.35;9.80;;;18.00;99.90;;;;;;5142329;27;20043;-84
2022/03/23 14:00:43;;;;;;;29.50;9.90;;;18.10;99.90;;;;;;5142265;27;20042;-82
2022/03/23 14:03:50;;;;;;;17.58;8.65;;;18.00;99.90;;;;;;5109331;27;20039;-91
2022/03/23 14:06:28;;;;;;;19.63;8.65;;;18.10;99.90;;;;;;5041444;28;20095;-89
2022/03/23 14:13:06;;;;;;;18.60;9.05;;;18.00;99.90;;;;;;4980886;28;20054;-90
2022/03/23 14:19:35;;;;;;;;;;;17.80;99.90;;;;;;4921129;29;20056;-89
2022/03/23 14:23:14;;;;;;;;;;;;;;;;;;;;;
2022/03/23 14:30:51;;;;;;;19.95;9.75;;;18.20;99.90;;;;;;4823518;29;20400;-90
2022/03/23 14:45:33;;;;;;;20.65;9.48;;;18.30;99.90;;;;;;5142894;27;20393;-87
2022/03/23 14:48:22;;;;;;;16.75;9.30;;;18.50;99.90;;;;;;5106715;28;20100;-83
2022/03/23 14:50:59;;;;;;;22.25;8.25;;;18.20;99.90;;;;;;5124551;28;20075;-88
2022/03/23 14:54:10;;;;;;;18.20;7.93;;;18.40;99.90;;;;;;5125240;28;20043;-91
2022/03/23 14:56:39;;;;;;;13.40;7.82;;;;;;;;;;5108084;28;20538;-86
2022/03/23 14:59:12;;;;;;;21.85;8.05;;;18.50;99.90;;;;;;5124732;28;20055;-89
2022/03/23 15:01:38;;;;;;;19.75;9.98;;;;;;;;;;5105908;28;20043;-81
2022/03/23 15:04:35;;;;;;;25.63;10.43;;;18.50;99.90;;;;;;5100122;28;20130;-91
2022/03/23 15:15:24;;;;;;;20.35;9.80;;;18.60;99.90;;;;;;5117424;28;20039;-93
2022/03/23 15:17:50;;;;;;;23.10;10.02;;;;;;;;;;5100629;28;20515;-86
2022/03/23 15:20:22;;;;;;;20.35;8.63;;;;;;;;;;5116699;28;20392;-85
2022/03/23 15:22:48;;;;;;;15.30;9.30;;;;;;;;;;5098552;28;20100;-82
2022/03/23 15:25:14;;;;;;;25.42;9.88;;;18.40;99.90;;;;;;5117959;28;20051;-84
2022/03/23 15:27:41;;;;;;;15.15;8.73;;;;;;;;;;5116356;28;20043;-83
2022/03/23 15:30:10;;;;;;;16.30;9.05;;;18.50;99.90;;;;;;5116656;28;20083;-83